< Typhoon 199315 1993 Season Typhoon 199317 >
Typhoon 199316 (BECKY)
General InformationTrack Information on Google MapsDetailed Wind InformationList of All Images || NewsDisaster Info.ResourceGoogle EarthGE AnimationAtom FeedGeoJSON
Detalied Best Track (Time Zone = UTC)
Year Month Day Hour Lat. Long. Pressure (hPa) Wind (kt) Class Image Chart
1993 9 13 06 14.0 130.5 1006 0 2 Image Chart
1993 9 13 12 14.0 130.0 1006 0 2 Image Chart
1993 9 13 18 14.3 129.0 1004 0 2 Image Chart
1993 9 14 00 15.0 128.0 1004 0 2 Image Chart
1993 9 14 06 15.5 127.2 1004 0 2 Image Chart
1993 9 14 12 16.2 126.4 1004 0 2 Image Chart
1993 9 14 18 16.6 125.8 1004 0 2 Image Chart
1993 9 15 00 17.1 124.5 1004 0 2 Image Chart
1993 9 15 06 17.9 123.6 1004 0 2 Image Chart
1993 9 15 12 18.6 123.0 1000 35 3 Image Chart
1993 9 15 18 18.9 122.0 998 35 3 Image Chart
1993 9 16 00 18.7 120.0 992 40 3 Image Chart
1993 9 16 06 19.2 118.5 985 50 4 Image Chart
1993 9 16 12 20.3 116.7 985 50 4 Image Chart
1993 9 16 18 20.9 114.9 980 55 4 Image Chart
1993 9 17 00 21.7 113.7 980 55 4 Image Chart
1993 9 17 06 22.3 111.7 985 50 4 Image Chart
1993 9 17 12 22.6 110.5 992 40 3 Image Chart
1993 9 17 18 22.8 109.5 996 35 3 Image Chart
1993 9 18 00 23.0 108.0 1002 0 2 Image Chart
1993 9 18 06 23.0 107.0 1004 0 2 Image Chart
1993 9 18 12 22.8 106.0 1004 0 2 Image Chart
1993 9 18 18 22.7 105.0 1006 0 2 Image Chart
Japan Meteorological Agency Best Track Data | Correction Date : 1994-01-10
< Typhoon 199315 1993 Season Typhoon 199317 >

Help